sensor_id;sensor_type;location;lat;lon;timestamp;P1;durP1;ratioP1;P2;durP2;ratioP2
40048;SDS011;54524;55.740;37.544;2022-08-11T00:01:04;1.4;;;0.6;;
40048;SDS011;54524;55.740;37.544;2022-08-11T00:02:06;1.3;;;0.6;;
40048;SDS011;54524;55.740;37.544;2022-08-11T00:03:07;1.3;;;0.6;;
40048;SDS011;54524;55.740;37.544;2022-08-11T00:04:08;2.6;;;0.6;;
40048;SDS011;54524;55.740;37.544;2022-08-11T00:05:11;2.7;;;0.6;;
40048;SDS011;54524;55.740;37.544;2022-08-11T00:06:12;2.7;;;0.6;;
40048;SDS011;54524;55.740;37.544;2022-08-11T00:07:15;1.9;;;0.5;;
40048;SDS011;54524;55.740;37.544;2022-08-11T00:08:20;2;;;0.5;;
40048;SDS011;54524;55.740;37.544;2022-08-11T00:09:22;1.9;;;0.6;;
40048;SDS011;54524;55.740;37.544;2022-08-11T00:11:04;1.8;;;0.6;;
40048;SDS011;54524;55.740;37.544;2022-08-11T00:12:11;1.8;;;0.6;;
40048;SDS011;54524;55.740;37.544;2022-08-11T00:13:12;2;;;0.7;;
40048;SDS011;54524;55.740;37.544;2022-08-11T00:14:14;2;;;0.7;;
40048;SDS011;54524;55.740;37.544;2022-08-11T00:15:15;2;;;0.7;;
40048;SDS011;54524;55.740;37.544;2022-08-11T00:16:16;1.9;;;0.5;;
40048;SDS011;54524;55.740;37.544;2022-08-11T00:17:18;1.9;;;0.5;;
40048;SDS011;54524;55.740;37.544;2022-08-11T00:18:18;1.9;;;0.5;;
40048;SDS011;54524;55.740;37.544;2022-08-11T00:19:20;2.8;;;0.6;;
40048;SDS011;54524;55.740;37.544;2022-08-11T00:21:03;2.7;;;0.6;;
40048;SDS011;54524;55.740;37.544;2022-08-11T00:22:03;1.3;;;0.6;;
40048;SDS011;54524;55.740;37.544;2022-08-11T00:23:06;1.4;;;0.6;;
40048;SDS011;54524;55.740;37.544;2022-08-11T00:24:07;1.3;;;0.6;;
40048;SDS011;54524;55.740;37.544;2022-08-11T00:25:09;1.7;;;0.8;;
40048;SDS011;54524;55.740;37.544;2022-08-11T00:26:10;1.7;;;0.8;;
40048;SDS011;54524;55.740;37.544;2022-08-11T00:27:12;1.5;;;0.8;;
40048;SDS011;54524;55.740;37.544;2022-08-11T00:28:22;3.1;;;0.8;;
40048;SDS011;54524;55.740;37.544;2022-08-11T00:29:23;3.3;;;0.8;;
40048;SDS011;54524;55.740;37.544;2022-08-11T00:31:04;0.9;;;0.5;;
40048;SDS011;54524;55.740;37.544;2022-08-11T00:32:05;1;;;0.6;;
40048;SDS011;54524;55.740;37.544;2022-08-11T00:33:11;0.8;;;0.5;;
40048;SDS011;54524;55.740;37.544;2022-08-11T00:34:12;2.4;;;0.7;;
40048;SDS011;54524;55.740;37.544;2022-08-11T00:35:15;2.4;;;0.7;;
40048;SDS011;54524;55.740;37.544;2022-08-11T00:36:17;2.5;;;0.7;;
40048;SDS011;54524;55.740;37.544;2022-08-11T00:37:19;1.9;;;0.7;;
40048;SDS011;54524;55.740;37.544;2022-08-11T00:38:22;1.9;;;0.7;;
40048;SDS011;54524;55.740;37.544;2022-08-11T00:39:24;1.7;;;0.7;;
40048;SDS011;54524;55.740;37.544;2022-08-11T00:41:05;2.3;;;0.7;;
40048;SDS011;54524;55.740;37.544;2022-08-11T00:42:10;2.4;;;0.7;;
40048;SDS011;54524;55.740;37.544;2022-08-11T00:43:15;1.4;;;0.7;;
40048;SDS011;54524;55.740;37.544;2022-08-11T00:44:24;1.4;;;0.7;;
40048;SDS011;54524;55.740;37.544;2022-08-11T00:45:29;1.4;;;0.7;;
40048;SDS011;54524;55.740;37.544;2022-08-11T00:46:34;3.1;;;0.6;;
40048;SDS011;54524;55.740;37.544;2022-08-11T00:47:43;3.1;;;0.6;;
40048;SDS011;54524;55.740;37.544;2022-08-11T00:48:49;3.1;;;0.6;;
40048;SDS011;54524;55.740;37.544;2022-08-11T00:49:57;3.2;;;0.6;;
40048;SDS011;54524;55.740;37.544;2022-08-11T00:51:05;3.4;;;0.7;;
40048;SDS011;54524;55.740;37.544;2022-08-11T00:52:12;3.4;;;0.6;;
40048;SDS011;54524;55.740;37.544;2022-08-11T00:53:52;1.3;;;0.7;;
40048;SDS011;54524;55.740;37.544;2022-08-11T00:54:59;1.3;;;0.7;;
40048;SDS011;54524;55.740;37.544;2022-08-11T00:56:15;1.1;;;0.7;;
40048;SDS011;54524;55.740;37.544;2022-08-11T00:57:21;1.1;;;0.7;;
40048;SDS011;54524;55.740;37.544;2022-08-11T00:58:37;2.5;;;0.7;;
40048;SDS011;54524;55.740;37.544;2022-08-11T00:59:51;2.5;;;0.7;;
40048;SDS011;54524;55.740;37.544;2022-08-11T01:01:13;2.3;;;0.7;;
40048;SDS011;54524;55.740;37.544;2022-08-11T01:02:23;2.3;;;0.7;;
40048;SDS011;54524;55.740;37.544;2022-08-11T01:03:30;2.3;;;0.7;;
40048;SDS011;54524;55.740;37.544;2022-08-11T01:05:12;2.3;;;0.7;;
40048;SDS011;54524;55.740;37.544;2022-08-11T01:06:20;1.6;;;0.7;;
40048;SDS011;54524;55.740;37.544;2022-08-11T01:07:41;1.6;;;0.7;;
40048;SDS011;54524;55.740;37.544;2022-08-11T01:09:05;4.2;;;0.6;;
40048;SDS011;54524;55.740;37.544;2022-08-11T01:11:13;4.1;;;0.9;;
40048;SDS011;54524;55.740;37.544;2022-08-11T01:12:20;4;;;0.9;;
40048;SDS011;54524;55.740;37.544;2022-08-11T01:13:32;4;;;0.9;;
40048;SDS011;54524;55.740;37.544;2022-08-11T01:14:49;1.2;;;0.7;;
40048;SDS011;54524;55.740;37.544;2022-08-11T01:17:03;1.1;;;0.7;;
40048;SDS011;54524;55.740;37.544;2022-08-11T01:18:10;4.3;;;0.8;;
40048;SDS011;54524;55.740;37.544;2022-08-11T01:19:31;4.3;;;0.8;;
40048;SDS011;54524;55.740;37.544;2022-08-11T01:26:29;2.6;;;0.7;;
40048;SDS011;54524;55.740;37.544;2022-08-11T01:27:54;2.6;;;0.7;;
40048;SDS011;54524;55.740;37.544;2022-08-11T01:29:08;2.7;;;0.7;;
40048;SDS011;54524;55.740;37.544;2022-08-11T01:36:36;0;;;0;;
40048;SDS011;54524;55.740;37.544;2022-08-11T01:37:57;2;;;0.7;;
40048;SDS011;54524;55.740;37.544;2022-08-11T01:43:17;2.3;;;0.8;;
40048;SDS011;54524;55.740;37.544;2022-08-11T01:46:29;2.8;;;0.8;;
40048;SDS011;54524;55.740;37.544;2022-08-11T01:47:31;2.8;;;0.8;;
40048;SDS011;54524;55.740;37.544;2022-08-11T01:49:06;1.8;;;0.8;;
40048;SDS011;54524;55.740;37.544;2022-08-11T01:51:11;1.8;;;0.7;;
40048;SDS011;54524;55.740;37.544;2022-08-11T01:52:14;1.8;;;0.7;;
40048;SDS011;54524;55.740;37.544;2022-08-11T01:53:22;1.8;;;0.7;;
40048;SDS011;54524;55.740;37.544;2022-08-11T01:54:26;1.5;;;0.7;;
40048;SDS011;54524;55.740;37.544;2022-08-11T01:55:32;1.2;;;0.7;;
40048;SDS011;54524;55.740;37.544;2022-08-11T01:56:41;1.2;;;0.7;;
40048;SDS011;54524;55.740;37.544;2022-08-11T01:57:49;5.3;;;0.8;;
40048;SDS011;54524;55.740;37.544;2022-08-11T01:58:55;4;;;0.9;;
40048;SDS011;54524;55.740;37.544;2022-08-11T02:00:02;3.6;;;0.8;;
40048;SDS011;54524;55.740;37.544;2022-08-11T02:01:05;4.3;;;0.7;;
40048;SDS011;54524;55.740;37.544;2022-08-11T02:02:17;4.4;;;0.7;;
40048;SDS011;54524;55.740;37.544;2022-08-11T02:03:46;2.8;;;0.7;;
40048;SDS011;54524;55.740;37.544;2022-08-11T02:04:52;1.7;;;0.7;;
40048;SDS011;54524;55.740;37.544;2022-08-11T02:05:57;1.7;;;0.6;;
40048;SDS011;54524;55.740;37.544;2022-08-11T02:07:02;1.8;;;0.8;;
40048;SDS011;54524;55.740;37.544;2022-08-11T02:08:09;1.8;;;0.8;;
40048;SDS011;54524;55.740;37.544;2022-08-11T02:09:12;1.7;;;0.8;;
40048;SDS011;54524;55.740;37.544;2022-08-11T02:11:06;1.9;;;0.7;;
40048;SDS011;54524;55.740;37.544;2022-08-11T02:12:43;1.6;;;0.6;;
40048;SDS011;54524;55.740;37.544;2022-08-11T02:13:46;1.6;;;0.6;;
40048;SDS011;54524;55.740;37.544;2022-08-11T02:14:52;1.6;;;0.7;;
40048;SDS011;54524;55.740;37.544;2022-08-11T02:16:02;1.6;;;0.7;;
40048;SDS011;54524;55.740;37.544;2022-08-11T02:17:08;1.7;;;0.7;;
40048;SDS011;54524;55.740;37.544;2022-08-11T02:18:12;1.3;;;0.7;;
40048;SDS011;54524;55.740;37.544;2022-08-11T02:19:21;2.4;;;0.6;;
40048;SDS011;54524;55.740;37.544;2022-08-11T02:21:03;2.4;;;0.6;;
40048;SDS011;54524;55.740;37.544;2022-08-11T02:24:18;2.9;;;0.5;;
40048;SDS011;54524;55.740;37.544;2022-08-11T02:25:23;1.9;;;0.6;;
40048;SDS011;54524;55.740;37.544;2022-08-11T02:26:27;1.9;;;0.6;;
40048;SDS011;54524;55.740;37.544;2022-08-11T02:27:34;2.3;;;0.6;;
40048;SDS011;54524;55.740;37.544;2022-08-11T02:28:41;1.4;;;0.5;;
40048;SDS011;54524;55.740;37.544;2022-08-11T02:29:48;1.4;;;0.5;;
40048;SDS011;54524;55.740;37.544;2022-08-11T02:31:06;2.3;;;0.6;;
40048;SDS011;54524;55.740;37.544;2022-08-11T02:34:16;2.1;;;0.6;;
40048;SDS011;54524;55.740;37.544;2022-08-11T02:35:19;2.1;;;0.6;;
40048;SDS011;54524;55.740;37.544;2022-08-11T02:36:26;1.9;;;0.6;;
40048;SDS011;54524;55.740;37.544;2022-08-11T02:37:41;1.6;;;0.6;;
40048;SDS011;54524;55.740;37.544;2022-08-11T02:38:47;1.6;;;0.6;;
40048;SDS011;54524;55.740;37.544;2022-08-11T02:39:54;1.5;;;0.6;;
40048;SDS011;54524;55.740;37.544;2022-08-11T02:41:05;3.1;;;0.5;;
40048;SDS011;54524;55.740;37.544;2022-08-11T02:43:25;1.1;;;0.5;;
40048;SDS011;54524;55.740;37.544;2022-08-11T02:44:28;1.2;;;0.5;;
40048;SDS011;54524;55.740;37.544;2022-08-11T02:45:34;1.2;;;0.5;;
40048;SDS011;54524;55.740;37.544;2022-08-11T02:46:40;2.5;;;0.5;;
40048;SDS011;54524;55.740;37.544;2022-08-11T02:47:45;2.4;;;0.5;;
40048;SDS011;54524;55.740;37.544;2022-08-11T02:51:04;3.6;;;0.5;;
40048;SDS011;54524;55.740;37.544;2022-08-11T02:52:07;3.6;;;0.5;;
40048;SDS011;54524;55.740;37.544;2022-08-11T02:53:10;0.9;;;0.6;;
40048;SDS011;54524;55.740;37.544;2022-08-11T02:54:14;0.9;;;0.6;;
40048;SDS011;54524;55.740;37.544;2022-08-11T02:55:17;0.8;;;0.6;;
40048;SDS011;54524;55.740;37.544;2022-08-11T02:56:24;1.8;;;0.7;;
40048;SDS011;54524;55.740;37.544;2022-08-11T02:57:28;1.8;;;0.7;;
40048;SDS011;54524;55.740;37.544;2022-08-11T02:58:35;1.2;;;0.6;;
40048;SDS011;54524;55.740;37.544;2022-08-11T02:59:42;1.2;;;0.6;;
40048;SDS011;54524;55.740;37.544;2022-08-11T03:01:05;1.1;;;0.6;;
40048;SDS011;54524;55.740;37.544;2022-08-11T03:02:12;2.5;;;0.7;;
40048;SDS011;54524;55.740;37.544;2022-08-11T03:03:17;2.5;;;0.7;;
40048;SDS011;54524;55.740;37.544;2022-08-11T03:04:21;2.6;;;0.7;;
40048;SDS011;54524;55.740;37.544;2022-08-11T03:05:28;1.9;;;0.6;;
40048;SDS011;54524;55.740;37.544;2022-08-11T03:06:33;1.9;;;0.6;;
40048;SDS011;54524;55.740;37.544;2022-08-11T03:07:39;1.9;;;0.6;;
40048;SDS011;54524;55.740;37.544;2022-08-11T03:08:47;2.7;;;0.7;;
40048;SDS011;54524;55.740;37.544;2022-08-11T03:09:52;2.7;;;0.7;;
40048;SDS011;54524;55.740;37.544;2022-08-11T03:11:06;1.3;;;0.7;;
40048;SDS011;54524;55.740;37.544;2022-08-11T03:14:18;0.7;;;0.5;;
40048;SDS011;54524;55.740;37.544;2022-08-11T03:17:29;1.2;;;0.8;;
40048;SDS011;54524;55.740;37.544;2022-08-11T03:18:33;1.2;;;0.8;;
40048;SDS011;54524;55.740;37.544;2022-08-11T03:19:45;1.3;;;0.8;;
40048;SDS011;54524;55.740;37.544;2022-08-11T03:21:05;1.2;;;0.6;;
40048;SDS011;54524;55.740;37.544;2022-08-11T03:22:07;1.2;;;0.7;;
40048;SDS011;54524;55.740;37.544;2022-08-11T03:23:10;2.2;;;0.9;;
40048;SDS011;54524;55.740;37.544;2022-08-11T03:24:14;2;;;0.9;;
40048;SDS011;54524;55.740;37.544;2022-08-11T03:25:20;1.9;;;0.8;;
40048;SDS011;54524;55.740;37.544;2022-08-11T03:26:31;1.7;;;0.7;;
40048;SDS011;54524;55.740;37.544;2022-08-11T03:27:33;1.7;;;0.7;;
40048;SDS011;54524;55.740;37.544;2022-08-11T03:28:42;1.6;;;0.7;;
40048;SDS011;54524;55.740;37.544;2022-08-11T03:29:46;3.2;;;0.9;;
40048;SDS011;54524;55.740;37.544;2022-08-11T03:31:07;2.8;;;0.9;;
40048;SDS011;54524;55.740;37.544;2022-08-11T03:32:10;2.4;;;0.9;;
40048;SDS011;54524;55.740;37.544;2022-08-11T03:33:22;2.4;;;0.9;;
40048;SDS011;54524;55.740;37.544;2022-08-11T03:35:26;3.6;;;0.8;;
40048;SDS011;54524;55.740;37.544;2022-08-11T03:36:38;3.5;;;0.8;;
40048;SDS011;54524;55.740;37.544;2022-08-11T03:37:47;4;;;0.8;;
40048;SDS011;54524;55.740;37.544;2022-08-11T03:38:55;1.8;;;0.8;;
40048;SDS011;54524;55.740;37.544;2022-08-11T03:40:02;1.7;;;0.8;;
40048;SDS011;54524;55.740;37.544;2022-08-11T03:41:06;1.8;;;0.8;;
40048;SDS011;54524;55.740;37.544;2022-08-11T03:42:45;3.1;;;0.9;;
40048;SDS011;54524;55.740;37.544;2022-08-11T03:43:52;3.1;;;1;;
40048;SDS011;54524;55.740;37.544;2022-08-11T03:44:58;3.2;;;0.9;;
40048;SDS011;54524;55.740;37.544;2022-08-11T03:46:03;3.2;;;0.9;;
40048;SDS011;54524;55.740;37.544;2022-08-11T03:47:08;3.2;;;0.9;;
40048;SDS011;54524;55.740;37.544;2022-08-11T03:48:13;3.8;;;0.9;;
40048;SDS011;54524;55.740;37.544;2022-08-11T03:49:22;3;;;0.8;;
40048;SDS011;54524;55.740;37.544;2022-08-11T03:51:05;0;;;0;;
40048;SDS011;54524;55.740;37.544;2022-08-11T03:52:11;1.9;;;0.7;;
40048;SDS011;54524;55.740;37.544;2022-08-11T03:53:15;1.9;;;0.7;;
40048;SDS011;54524;55.740;37.544;2022-08-11T03:54:19;1.2;;;0.8;;
40048;SDS011;54524;55.740;37.544;2022-08-11T03:55:30;1.2;;;0.8;;
40048;SDS011;54524;55.740;37.544;2022-08-11T03:56:44;1.5;;;0.7;;
40048;SDS011;54524;55.740;37.544;2022-08-11T03:58:26;2.1;;;0.8;;
40048;SDS011;54524;55.740;37.544;2022-08-11T03:59:35;2.5;;;0.8;;
40048;SDS011;54524;55.740;37.544;2022-08-11T04:01:15;3;;;0.8;;
40048;SDS011;54524;55.740;37.544;2022-08-11T04:02:30;3.1;;;0.8;;
40048;SDS011;54524;55.740;37.544;2022-08-11T04:06:55;3.9;;;1.1;;
40048;SDS011;54524;55.740;37.544;2022-08-11T04:08:14;3.2;;;1.1;;
40048;SDS011;54524;55.740;37.544;2022-08-11T04:09:34;3;;;1;;
40048;SDS011;54524;55.740;37.544;2022-08-11T04:12:27;4.2;;;1;;
40048;SDS011;54524;55.740;37.544;2022-08-11T04:13:34;2.9;;;0.9;;
40048;SDS011;54524;55.740;37.544;2022-08-11T04:14:45;3.4;;;0.9;;
40048;SDS011;54524;55.740;37.544;2022-08-11T04:18:04;5.4;;;0.8;;
40048;SDS011;54524;55.740;37.544;2022-08-11T04:19:21;1.8;;;1;;
40048;SDS011;54524;55.740;37.544;2022-08-11T04:21:05;1.8;;;1;;
40048;SDS011;54524;55.740;37.544;2022-08-11T04:22:15;1.7;;;1;;
40048;SDS011;54524;55.740;37.544;2022-08-11T04:23:35;3.9;;;1;;
40048;SDS011;54524;55.740;37.544;2022-08-11T04:24:49;4;;;1;;
40048;SDS011;54524;55.740;37.544;2022-08-11T04:25:58;3;;;1.2;;
40048;SDS011;54524;55.740;37.544;2022-08-11T04:29:14;3;;;1.1;;
40048;SDS011;54524;55.740;37.544;2022-08-11T04:31:06;2.9;;;1.1;;
40048;SDS011;54524;55.740;37.544;2022-08-11T04:32:13;2.5;;;1;;
40048;SDS011;54524;55.740;37.544;2022-08-11T04:33:37;2.5;;;1;;
40048;SDS011;54524;55.740;37.544;2022-08-11T04:34:43;1.9;;;1.1;;
40048;SDS011;54524;55.740;37.544;2022-08-11T04:35:49;1.9;;;1.1;;
40048;SDS011;54524;55.740;37.544;2022-08-11T04:36:56;2;;;1.1;;
40048;SDS011;54524;55.740;37.544;2022-08-11T04:38:41;1.8;;;1;;
40048;SDS011;54524;55.740;37.544;2022-08-11T04:39:56;1.7;;;1;;
40048;SDS011;54524;55.740;37.544;2022-08-11T04:41:17;4.6;;;1.1;;
40048;SDS011;54524;55.740;37.544;2022-08-11T04:44:49;3;;;1.2;;
40048;SDS011;54524;55.740;37.544;2022-08-11T04:46:11;3;;;1.2;;
40048;SDS011;54524;55.740;37.544;2022-08-11T04:47:19;2.3;;;1.1;;
40048;SDS011;54524;55.740;37.544;2022-08-11T04:51:08;4.3;;;1.1;;
40048;SDS011;54524;55.740;37.544;2022-08-11T04:54:23;2.9;;;1.2;;
40048;SDS011;54524;55.740;37.544;2022-08-11T04:57:35;4.2;;;1;;
40048;SDS011;54524;55.740;37.544;2022-08-11T05:01:07;3.7;;;1.2;;
40048;SDS011;54524;55.740;37.544;2022-08-11T05:02:50;3.6;;;1;;
40048;SDS011;54524;55.740;37.544;2022-08-11T05:04:12;3.3;;;1;;
40048;SDS011;54524;55.740;37.544;2022-08-11T05:09:33;2.8;;;1.2;;
40048;SDS011;54524;55.740;37.544;2022-08-11T05:11:37;5.1;;;1.2;;
40048;SDS011;54524;55.740;37.544;2022-08-11T05:12:45;5.1;;;1.1;;
40048;SDS011;54524;55.740;37.544;2022-08-11T05:13:46;5.1;;;1.1;;
40048;SDS011;54524;55.740;37.544;2022-08-11T05:16:56;5.8;;;1.1;;
40048;SDS011;54524;55.740;37.544;2022-08-11T05:21:04;4.1;;;1.1;;
40048;SDS011;54524;55.740;37.544;2022-08-11T05:24:16;3.4;;;1.2;;
40048;SDS011;54524;55.740;37.544;2022-08-11T05:27:29;2.4;;;1.2;;
40048;SDS011;54524;55.740;37.544;2022-08-11T05:31:03;5.9;;;1.4;;
40048;SDS011;54524;55.740;37.544;2022-08-11T05:34:14;5.8;;;1.4;;
40048;SDS011;54524;55.740;37.544;2022-08-11T05:36:23;5.3;;;1.2;;
40048;SDS011;54524;55.740;37.544;2022-08-11T05:37:30;5.3;;;1.2;;
40048;SDS011;54524;55.740;37.544;2022-08-11T05:38:33;6.3;;;1.3;;
40048;SDS011;54524;55.740;37.544;2022-08-11T05:41:03;6.3;;;1.3;;
40048;SDS011;54524;55.740;37.544;2022-08-11T05:44:16;3;;;1.2;;
40048;SDS011;54524;55.740;37.544;2022-08-11T05:47:24;4.4;;;1.5;;
40048;SDS011;54524;55.740;37.544;2022-08-11T05:51:02;2.8;;;1.2;;
40048;SDS011;54524;55.740;37.544;2022-08-11T05:54:13;4.6;;;1.4;;
40048;SDS011;54524;55.740;37.544;2022-08-11T05:57:23;4.8;;;1.4;;
40048;SDS011;54524;55.740;37.544;2022-08-11T05:58:30;4.8;;;1.3;;
40048;SDS011;54524;55.740;37.544;2022-08-11T05:59:32;4.8;;;1.3;;
40048;SDS011;54524;55.740;37.544;2022-08-11T06:01:03;4.2;;;1.3;;
40048;SDS011;54524;55.740;37.544;2022-08-11T06:02:04;4.2;;;1.3;;
40048;SDS011;54524;55.740;37.544;2022-08-11T06:03:06;4.2;;;1.3;;
40048;SDS011;54524;55.740;37.544;2022-08-11T06:04:14;2.8;;;1.1;;
40048;SDS011;54524;55.740;37.544;2022-08-11T06:05:15;2.9;;;1.2;;
40048;SDS011;54524;55.740;37.544;2022-08-11T06:06:16;2.7;;;1.1;;
40048;SDS011;54524;55.740;37.544;2022-08-11T06:07:17;2.6;;;1.1;;
40048;SDS011;54524;55.740;37.544;2022-08-11T06:08:26;2.6;;;1.1;;
40048;SDS011;54524;55.740;37.544;2022-08-11T06:09:28;0;;;0;;
40048;SDS011;54524;55.740;37.544;2022-08-11T06:11:03;3;;;1.1;;
40048;SDS011;54524;55.740;37.544;2022-08-11T06:12:05;2.6;;;1.2;;
40048;SDS011;54524;55.740;37.544;2022-08-11T06:13:06;2.4;;;1.1;;
40048;SDS011;54524;55.740;37.544;2022-08-11T06:14:07;2.4;;;1.1;;
40048;SDS011;54524;55.740;37.544;2022-08-11T06:15:09;2.5;;;1.2;;
40048;SDS011;54524;55.740;37.544;2022-08-11T06:16:10;2.9;;;1.3;;
40048;SDS011;54524;55.740;37.544;2022-08-11T06:17:17;2.9;;;1.3;;
40048;SDS011;54524;55.740;37.544;2022-08-11T06:18:21;3.5;;;1.3;;
40048;SDS011;54524;55.740;37.544;2022-08-11T06:19:22;3;;;1.5;;
40048;SDS011;54524;55.740;37.544;2022-08-11T06:21:07;2.4;;;1.5;;
40048;SDS011;54524;55.740;37.544;2022-08-11T06:22:09;2.3;;;0.9;;
40048;SDS011;54524;55.740;37.544;2022-08-11T06:23:10;2.4;;;0.9;;
40048;SDS011;54524;55.740;37.544;2022-08-11T06:24:14;2.3;;;0.9;;
40048;SDS011;54524;55.740;37.544;2022-08-11T06:25:15;1.7;;;1.1;;
40048;SDS011;54524;55.740;37.544;2022-08-11T06:26:16;1.9;;;1.1;;
40048;SDS011;54524;55.740;37.544;2022-08-11T06:27:18;1.9;;;1.1;;
40048;SDS011;54524;55.740;37.544;2022-08-11T06:28:19;3.6;;;1;;
40048;SDS011;54524;55.740;37.544;2022-08-11T06:29:29;3.5;;;1;;
40048;SDS011;54524;55.740;37.544;2022-08-11T06:31:10;2.4;;;0.9;;
40048;SDS011;54524;55.740;37.544;2022-08-11T06:32:11;2.6;;;0.8;;
40048;SDS011;54524;55.740;37.544;2022-08-11T06:33:14;2.6;;;0.8;;
40048;SDS011;54524;55.740;37.544;2022-08-11T06:34:25;0;;;0;;
40048;SDS011;54524;55.740;37.544;2022-08-11T06:35:29;3.7;;;1.1;;
40048;SDS011;54524;55.740;37.544;2022-08-11T06:36:34;3.7;;;1.1;;
40048;SDS011;54524;55.740;37.544;2022-08-11T06:37:42;3;;;1;;
40048;SDS011;54524;55.740;37.544;2022-08-11T06:38:48;3;;;1;;
40048;SDS011;54524;55.740;37.544;2022-08-11T06:39:56;2.5;;;0.8;;
40048;SDS011;54524;55.740;37.544;2022-08-11T06:41:03;2.9;;;0.9;;
40048;SDS011;54524;55.740;37.544;2022-08-11T06:42:46;2.7;;;0.9;;
40048;SDS011;54524;55.740;37.544;2022-08-11T06:43:50;2.8;;;1.2;;
40048;SDS011;54524;55.740;37.544;2022-08-11T06:44:53;2.8;;;1.2;;
40048;SDS011;54524;55.740;37.544;2022-08-11T06:45:58;3.1;;;1.2;;
40048;SDS011;54524;55.740;37.544;2022-08-11T06:47:04;4.4;;;1;;
40048;SDS011;54524;55.740;37.544;2022-08-11T06:48:07;4.4;;;1;;
40048;SDS011;54524;55.740;37.544;2022-08-11T06:49:15;1.9;;;0.9;;
40048;SDS011;54524;55.740;37.544;2022-08-11T06:51:03;1.6;;;0.9;;
40048;SDS011;54524;55.740;37.544;2022-08-11T06:52:11;4.6;;;1;;
40048;SDS011;54524;55.740;37.544;2022-08-11T06:53:14;4.6;;;1;;
40048;SDS011;54524;55.740;37.544;2022-08-11T06:54:15;4.9;;;1;;
40048;SDS011;54524;55.740;37.544;2022-08-11T06:55:21;2.4;;;0.7;;
40048;SDS011;54524;55.740;37.544;2022-08-11T06:58:30;0;;;0;;
40048;SDS011;54524;55.740;37.544;2022-08-11T07:01:04;2.2;;;0.9;;
40048;SDS011;54524;55.740;37.544;2022-08-11T07:02:08;5.5;;;1;;
40048;SDS011;54524;55.740;37.544;2022-08-11T07:03:11;5.5;;;1;;
40048;SDS011;54524;55.740;37.544;2022-08-11T07:04:12;4.8;;;1;;
40048;SDS011;54524;55.740;37.544;2022-08-11T07:05:15;4.2;;;1.2;;
40048;SDS011;54524;55.740;37.544;2022-08-11T07:06:24;4.3;;;1.2;;
40048;SDS011;54524;55.740;37.544;2022-08-11T07:07:36;3.4;;;1;;
40048;SDS011;54524;55.740;37.544;2022-08-11T07:11:10;4.2;;;1.1;;
40048;SDS011;54524;55.740;37.544;2022-08-11T07:14:22;2.2;;;0.9;;
40048;SDS011;54524;55.740;37.544;2022-08-11T07:17:31;2.1;;;0.8;;
40048;SDS011;54524;55.740;37.544;2022-08-11T07:18:35;2.1;;;0.8;;
40048;SDS011;54524;55.740;37.544;2022-08-11T07:21:11;3.5;;;1;;
40048;SDS011;54524;55.740;37.544;2022-08-11T07:24:22;1.8;;;0.8;;
40048;SDS011;54524;55.740;37.544;2022-08-11T07:27:36;1;;;0.7;;
40048;SDS011;54524;55.740;37.544;2022-08-11T07:31:05;4.5;;;0.8;;
40048;SDS011;54524;55.740;37.544;2022-08-11T07:32:10;2.7;;;0.9;;
40048;SDS011;54524;55.740;37.544;2022-08-11T07:33:12;2.7;;;0.9;;
40048;SDS011;54524;55.740;37.544;2022-08-11T07:34:15;2.6;;;0.9;;
40048;SDS011;54524;55.740;37.544;2022-08-11T07:35:19;2.3;;;0.8;;
40048;SDS011;54524;55.740;37.544;2022-08-11T07:36:21;2.3;;;0.8;;
40048;SDS011;54524;55.740;37.544;2022-08-11T07:37:23;2.3;;;0.8;;
40048;SDS011;54524;55.740;37.544;2022-08-11T07:38:26;4.1;;;1.2;;
40048;SDS011;54524;55.740;37.544;2022-08-11T07:39:43;3.7;;;1.2;;
40048;SDS011;54524;55.740;37.544;2022-08-11T07:41:02;3.7;;;1.2;;
40048;SDS011;54524;55.740;37.544;2022-08-11T07:42:04;3;;;0.8;;
40048;SDS011;54524;55.740;37.544;2022-08-11T07:43:05;3;;;0.8;;
40048;SDS011;54524;55.740;37.544;2022-08-11T07:44:06;3.1;;;0.8;;
40048;SDS011;54524;55.740;37.544;2022-08-11T07:45:10;3.2;;;0.6;;
40048;SDS011;54524;55.740;37.544;2022-08-11T07:48:19;1.2;;;0.7;;
40048;SDS011;54524;55.740;37.544;2022-08-11T07:51:03;0.8;;;0.7;;
40048;SDS011;54524;55.740;37.544;2022-08-11T07:54:11;2.3;;;0.8;;
40048;SDS011;54524;55.740;37.544;2022-08-11T07:55:12;2.3;;;0.8;;
40048;SDS011;54524;55.740;37.544;2022-08-11T07:56:14;2.3;;;0.8;;
40048;SDS011;54524;55.740;37.544;2022-08-11T07:57:15;2.1;;;0.6;;
40048;SDS011;54524;55.740;37.544;2022-08-11T08:01:03;3.7;;;0.8;;
40048;SDS011;54524;55.740;37.544;2022-08-11T08:04:12;2.4;;;0.6;;
40048;SDS011;54524;55.740;37.544;2022-08-11T08:07:20;2;;;0.6;;
40048;SDS011;54524;55.740;37.544;2022-08-11T08:11:03;2.7;;;0.8;;
40048;SDS011;54524;55.740;37.544;2022-08-11T08:14:11;2.7;;;0.9;;
40048;SDS011;54524;55.740;37.544;2022-08-11T08:17:18;1.3;;;0.7;;
40048;SDS011;54524;55.740;37.544;2022-08-11T08:18:51;2.5;;;0.8;;
40048;SDS011;54524;55.740;37.544;2022-08-11T08:19:52;2.5;;;0.8;;
40048;SDS011;54524;55.740;37.544;2022-08-11T08:21:03;2;;;0.7;;
40048;SDS011;54524;55.740;37.544;2022-08-11T08:22:11;2;;;0.7;;
40048;SDS011;54524;55.740;37.544;2022-08-11T08:23:14;2;;;0.7;;
40048;SDS011;54524;55.740;37.544;2022-08-11T08:24:17;0.8;;;0.5;;
40048;SDS011;54524;55.740;37.544;2022-08-11T08:25:19;1;;;0.6;;
40048;SDS011;54524;55.740;37.544;2022-08-11T08:26:19;1;;;0.5;;
40048;SDS011;54524;55.740;37.544;2022-08-11T08:28:25;3.4;;;0.7;;
40048;SDS011;54524;55.740;37.544;2022-08-11T08:29:28;3.4;;;0.7;;
40048;SDS011;54524;55.740;37.544;2022-08-11T08:31:04;1.4;;;0.7;;
40048;SDS011;54524;55.740;37.544;2022-08-11T08:32:05;1.4;;;0.7;;
40048;SDS011;54524;55.740;37.544;2022-08-11T08:33:06;1.4;;;0.7;;
40048;SDS011;54524;55.740;37.544;2022-08-11T08:34:07;1.1;;;0.7;;
40048;SDS011;54524;55.740;37.544;2022-08-11T08:35:08;1.2;;;0.7;;
40048;SDS011;54524;55.740;37.544;2022-08-11T08:36:09;1.2;;;0.7;;
40048;SDS011;54524;55.740;37.544;2022-08-11T08:37:11;1.6;;;0.6;;
40048;SDS011;54524;55.740;37.544;2022-08-11T08:38:12;1.6;;;0.6;;
40048;SDS011;54524;55.740;37.544;2022-08-11T08:39:13;1.6;;;0.6;;
40048;SDS011;54524;55.740;37.544;2022-08-11T08:41:03;4;;;1;;
40048;SDS011;54524;55.740;37.544;2022-08-11T08:42:05;4;;;1;;
40048;SDS011;54524;55.740;37.544;2022-08-11T08:43:08;2.1;;;0.6;;
40048;SDS011;54524;55.740;37.544;2022-08-11T08:44:11;2.1;;;0.6;;
40048;SDS011;54524;55.740;37.544;2022-08-11T08:45:12;1.8;;;0.6;;
40048;SDS011;54524;55.740;37.544;2022-08-11T08:46:16;1.3;;;0.6;;
40048;SDS011;54524;55.740;37.544;2022-08-11T08:47:19;1.3;;;0.6;;
40048;SDS011;54524;55.740;37.544;2022-08-11T08:48:19;1.2;;;0.6;;
40048;SDS011;54524;55.740;37.544;2022-08-11T08:49:24;1.3;;;0.6;;
40048;SDS011;54524;55.740;37.544;2022-08-11T08:51:03;1.3;;;0.6;;
40048;SDS011;54524;55.740;37.544;2022-08-11T08:52:38;1.4;;;0.8;;
40048;SDS011;54524;55.740;37.544;2022-08-11T08:53:40;2;;;0.9;;
40048;SDS011;54524;55.740;37.544;2022-08-11T08:54:44;2;;;0.9;;
40048;SDS011;54524;55.740;37.544;2022-08-11T08:55:47;3;;;0.7;;
40048;SDS011;54524;55.740;37.544;2022-08-11T08:56:50;3;;;0.7;;
40048;SDS011;54524;55.740;37.544;2022-08-11T08:57:52;2.7;;;0.7;;
40048;SDS011;54524;55.740;37.544;2022-08-11T08:58:53;1.5;;;0.7;;
40048;SDS011;54524;55.740;37.544;2022-08-11T08:59:56;1.5;;;0.7;;
40048;SDS011;54524;55.740;37.544;2022-08-11T09:01:03;1.3;;;0.8;;
40048;SDS011;54524;55.740;37.544;2022-08-11T09:02:05;1.4;;;0.8;;
40048;SDS011;54524;55.740;37.544;2022-08-11T09:03:06;1.3;;;0.8;;
40048;SDS011;54524;55.740;37.544;2022-08-11T09:04:06;1.9;;;1;;
40048;SDS011;54524;55.740;37.544;2022-08-11T09:05:08;1.8;;;0.9;;
40048;SDS011;54524;55.740;37.544;2022-08-11T09:06:09;1.8;;;0.9;;
40048;SDS011;54524;55.740;37.544;2022-08-11T09:07:11;2.2;;;0.9;;
40048;SDS011;54524;55.740;37.544;2022-08-11T09:08:12;2.2;;;0.9;;
40048;SDS011;54524;55.740;37.544;2022-08-11T09:09:12;2.1;;;0.9;;
40048;SDS011;54524;55.740;37.544;2022-08-11T09:11:03;1.6;;;0.9;;
40048;SDS011;54524;55.740;37.544;2022-08-11T09:13:07;2.6;;;0.8;;